Time;durP1;ratioP1;P1;durP2;ratioP2;P2;SDS_P1;SDS_P2;PMS_P1;PMS_P2;Temp;Humidity;BMP_temperature;BMP_pressure;BME280_temperature;BME280_humidity;BME280_pressure;Samples;Min_cycle;Max_cycle;Signal;HPM_P1;HPM_P2
2021/12/06 00:00:37;;;;;;;60.15;32.10;;;;;;;1.56;100.00;100991.94;5242580;28;20132;-68
2021/12/06 00:03:14;;;;;;;53.35;31.63;;;;;;;1.57;100.00;100996.25;5241652;28;20036;-68
2021/12/06 00:05:45;;;;;;;63.40;33.80;;;;;;;1.46;100.00;100985.28;5241032;28;20025;-69
2021/12/06 00:08:16;;;;;;;60.72;33.65;;;;;;;1.45;100.00;100991.47;5249388;28;20072;-67
2021/12/06 00:10:50;;;;;;;58.15;33.50;;;;;;;1.53;100.00;100992.03;5250905;28;20435;-67
2021/12/06 00:13:23;;;;;;;60.78;33.63;;;;;;;1.51;100.00;100992.09;5249760;28;20127;-68
2021/12/06 00:15:55;;;;;;;65.75;34.22;;;;;;;1.59;100.00;100997.06;5247846;28;20104;-68
2021/12/06 00:18:26;;;;;;;57.55;32.90;;;;;;;1.58;100.00;100998.00;5245300;28;20558;-68
2021/12/06 00:20:58;;;;;;;63.95;33.42;;;;;;;1.60;100.00;101009.31;5246318;28;20041;-68
2021/12/06 00:23:29;;;;;;;68.60;35.42;;;;;;;1.55;100.00;101006.88;5240222;28;20059;-68
2021/12/06 00:26:01;;;;;;;57.72;32.60;;;;;;;1.60;100.00;101018.97;5247945;28;20029;-67
2021/12/06 00:28:33;;;;;;;61.33;35.28;;;;;;;1.60;100.00;101014.56;5245517;28;20029;-68
2021/12/06 00:31:05;;;;;;;62.47;35.65;;;;;;;1.52;100.00;101017.47;5244272;28;20060;-68
2021/12/06 00:33:36;;;;;;;58.30;33.78;;;;;;;1.57;100.00;101019.94;5245638;28;20489;-68
2021/12/06 00:36:15;;;;;;;64.45;35.05;;;;;;;1.59;100.00;101019.88;5248073;28;20029;-68
2021/12/06 00:38:47;;;;;;;64.85;34.45;;;;;;;1.61;100.00;101020.69;5244266;28;20108;-68
2021/12/06 00:41:18;;;;;;;65.25;35.03;;;;;;;1.59;100.00;101027.78;5243803;28;20025;-68
2021/12/06 00:43:50;;;;;;;70.78;36.05;;;;;;;1.55;100.00;101030.53;5253277;28;20026;-67
2021/12/06 00:46:22;;;;;;;61.35;33.95;;;;;;;1.68;100.00;101043.22;5249298;28;20352;-68
2021/12/06 00:48:53;;;;;;;62.92;35.60;;;;;;;1.66;100.00;101038.00;5248334;28;20581;-68
2021/12/06 00:51:25;;;;;;;67.47;35.75;;;;;;;1.66;100.00;101047.69;5251179;28;20106;-67
2021/12/06 00:53:56;;;;;;;66.20;35.45;;;;;;;1.71;100.00;101046.59;5249246;28;20534;-68
2021/12/06 00:56:28;;;;;;;67.25;35.88;;;;;;;1.66;100.00;101051.16;5250446;28;20021;-68
2021/12/06 00:58:59;;;;;;;70.32;36.72;;;;;;;1.69;100.00;101063.38;5248750;28;20040;-68
2021/12/06 01:01:32;;;;;;;71.72;37.08;;;;;;;1.67;100.00;101071.31;5247888;28;20029;-68
2021/12/06 01:04:04;;;;;;;72.65;36.67;;;;;;;1.69;100.00;101071.25;5247180;28;20194;-68
2021/12/06 01:06:36;;;;;;;71.30;35.58;;;;;;;1.66;100.00;101074.84;5246027;28;20486;-68
2021/12/06 01:09:07;;;;;;;69.95;36.65;;;;;;;1.68;100.00;101080.03;5248566;28;20056;-68
2021/12/06 01:11:38;;;;;;;73.85;37.67;;;;;;;1.71;100.00;101079.94;5253560;28;20529;-68
2021/12/06 01:14:10;;;;;;;68.15;37.72;;;;;;;1.81;100.00;101076.06;5247982;28;20045;-68
2021/12/06 01:16:41;;;;;;;74.65;38.20;;;;;;;1.77;100.00;101070.03;5237574;28;20455;-68
2021/12/06 01:19:13;;;;;;;75.90;38.35;;;;;;;1.83;100.00;101076.84;5245684;28;20112;-68
2021/12/06 01:22:04;;;;;;;81.47;39.38;;;;;;;1.80;100.00;101078.75;5245766;28;20033;-68
2021/12/06 01:24:42;;;;;;;74.70;39.17;;;;;;;1.83;100.00;101089.16;5242667;28;20049;-69
2021/12/06 01:40:42;;;;;;;83.90;41.72;;;;;;;1.88;100.00;101089.84;5248006;28;20040;-68
2021/12/06 01:43:13;;;;;;;74.85;39.60;;;;;;;1.92;100.00;101084.41;5245561;28;20029;-68
2021/12/06 01:45:45;;;;;;;82.10;40.63;;;;;;;1.97;100.00;101100.03;5247522;28;20034;-68
2021/12/06 01:48:16;;;;;;;86.65;40.08;;;;;;;1.93;100.00;101101.91;5245544;28;20049;-68
2021/12/06 01:50:48;;;;;;;77.00;39.33;;;;;;;1.94;100.00;101108.06;5248806;28;20029;-68
2021/12/06 01:53:19;;;;;;;76.10;38.78;;;;;;;1.91;100.00;101102.88;5248816;28;20442;-68
2021/12/06 01:55:50;;;;;;;78.72;40.47;;;;;;;1.92;100.00;101115.16;5239953;28;20021;-69
2021/12/06 01:58:21;;;;;;;75.63;38.55;;;;;;;1.99;100.00;101116.63;5248249;28;20115;-68
2021/12/06 02:00:53;;;;;;;73.70;37.65;;;;;;;2.02;100.00;101113.03;5245089;28;20403;-68
2021/12/06 02:03:24;;;;;;;76.50;40.58;;;;;;;1.96;100.00;101114.13;5247065;28;20039;-68
2021/12/06 02:05:56;;;;;;;77.97;40.00;;;;;;;1.95;100.00;101115.00;5248828;28;20135;-68
2021/12/06 02:08:27;;;;;;;79.20;41.05;;;;;;;1.96;100.00;101111.47;5248256;28;20044;-68
2021/12/06 02:11:02;;;;;;;76.03;39.33;;;;;;;1.99;100.00;101111.34;5244227;28;20029;-68
2021/12/06 02:13:44;;;;;;;;;;;;;;;2.06;100.00;101118.13;5250426;28;20029;-68
2021/12/06 02:16:18;;;;;;;79.80;38.45;;;;;;;1.97;100.00;101118.44;5252088;28;20354;-68
2021/12/06 02:18:55;;;;;;;74.60;38.50;;;;;;;1.98;100.00;101112.28;5246125;28;20056;-67
2021/12/06 02:21:31;;;;;;;82.88;39.15;;;;;;;2.02;100.00;101128.81;5239519;28;20086;-67
2021/12/06 02:24:08;;;;;;;80.93;40.25;;;;;;;2.02;100.00;101121.78;5245652;28;20033;-68
2021/12/06 02:26:40;;;;;;;79.80;40.88;;;;;;;2.04;100.00;101127.00;5245832;28;20047;-68
2021/12/06 02:29:12;;;;;;;75.40;39.40;;;;;;;2.04;100.00;101134.88;5240731;28;20048;-68
2021/12/06 02:31:43;;;;;;;72.10;38.58;;;;;;;2.06;100.00;101139.19;5241059;28;20029;-67
2021/12/06 02:34:15;;;;;;;78.47;39.88;;;;;;;2.12;100.00;101148.63;5239934;28;20406;-67
2021/12/06 02:36:46;;;;;;;85.55;39.88;;;;;;;2.07;100.00;101147.91;5240597;28;20029;-68
2021/12/06 02:39:23;;;;;;;85.60;40.90;;;;;;;2.09;100.00;101144.34;5237817;28;20041;-68
2021/12/06 02:41:57;;;;;;;73.22;37.80;;;;;;;2.11;100.00;101137.25;5243176;28;20037;-68
2021/12/06 02:44:28;;;;;;;75.90;38.47;;;;;;;2.10;100.00;101147.81;5239134;28;20507;-68
2021/12/06 02:47:00;;;;;;;76.03;38.72;;;;;;;2.12;100.00;101146.00;5242772;28;20017;-68
2021/12/06 02:49:31;;;;;;;83.60;41.53;;;;;;;2.07;100.00;101155.81;5239284;28;20239;-68
2021/12/06 02:52:05;;;;;;;83.38;40.75;;;;;;;2.05;100.00;101162.91;5238609;28;20033;-68
2021/12/06 02:54:38;;;;;;;90.43;43.70;;;;;;;2.04;100.00;101159.44;5240591;28;20033;-68
2021/12/06 02:59:45;;;;;;;88.45;41.10;;;;;;;2.05;100.00;101163.78;5238958;28;20420;-68
2021/12/06 03:02:19;;;;;;;77.13;38.40;;;;;;;2.10;100.00;101164.47;5240832;28;20462;-68
2021/12/06 03:04:50;;;;;;;89.13;41.65;;;;;;;2.06;100.00;101164.63;5236084;28;20033;-68
2021/12/06 03:07:24;;;;;;;85.90;42.33;;;;;;;2.05;100.00;101163.78;5241978;28;20032;-68
2021/12/06 03:09:56;;;;;;;92.63;42.28;;;;;;;2.04;100.00;101166.47;5240388;28;20053;-67
2021/12/06 03:12:28;;;;;;;82.93;40.67;;;;;;;2.03;100.00;101162.97;5240539;28;20156;-68
2021/12/06 03:15:01;;;;;;;77.75;38.67;;;;;;;2.13;100.00;101171.41;5243065;28;20029;-67
2021/12/06 03:17:33;;;;;;;81.00;39.20;;;;;;;2.08;100.00;101173.34;5241347;28;20431;-68
2021/12/06 03:20:09;;;;;;;84.88;40.75;;;;;;;2.05;100.00;101169.06;5238343;28;20146;-68
2021/12/06 03:22:43;;;;;;;86.50;41.58;;;;;;;2.04;100.00;101163.84;5242575;28;20585;-68
2021/12/06 03:25:17;;;;;;;80.18;41.72;;;;;;;2.03;100.00;101168.22;5238518;28;20451;-68
2021/12/06 03:27:48;;;;;;;79.32;39.10;;;;;;;2.11;100.00;101163.56;5240784;28;20032;-68
2021/12/06 03:30:20;;;;;;;94.03;42.75;;;;;;;2.03;100.00;101167.38;5238871;28;20174;-68
2021/12/06 03:32:51;;;;;;;87.80;42.22;;;;;;;2.03;100.00;101165.59;5238920;28;20581;-68
2021/12/06 03:35:23;;;;;;;82.10;40.47;;;;;;;2.06;100.00;101170.75;5238907;28;20032;-68
2021/12/06 03:37:54;;;;;;;90.22;42.25;;;;;;;2.10;100.00;101171.50;5240341;28;20047;-68
2021/12/06 03:40:25;;;;;;;89.88;41.50;;;;;;;2.17;100.00;101173.00;5240642;28;20029;-67
2021/12/06 03:42:57;;;;;;;82.32;39.97;;;;;;;2.16;100.00;101171.28;5245065;28;20150;-68
2021/12/06 03:45:28;;;;;;;88.57;40.40;;;;;;;2.16;100.00;101181.81;5243950;28;20021;-68
2021/12/06 03:47:59;;;;;;;87.25;41.38;;;;;;;2.08;100.00;101174.19;5244005;28;20387;-68
2021/12/06 03:50:31;;;;;;;86.03;40.63;;;;;;;2.16;100.00;101182.66;5246883;28;20052;-68
2021/12/06 03:53:02;;;;;;;91.85;42.85;;;;;;;2.07;100.00;101172.50;5243438;28;20044;-68
2021/12/06 03:55:34;;;;;;;91.38;43.47;;;;;;;2.06;100.00;101173.38;5243334;28;20025;-68
2021/12/06 03:58:05;;;;;;;87.65;41.75;;;;;;;2.13;100.00;101164.38;5243921;28;20130;-68
2021/12/06 04:00:37;;;;;;;90.05;40.47;;;;;;;2.19;100.00;101170.28;5243372;28;20474;-68
2021/12/06 04:03:09;;;;;;;80.68;39.75;;;;;;;2.19;100.00;101172.94;5244688;28;20037;-68
2021/12/06 04:05:41;;;;;;;91.40;42.45;;;;;;;2.15;100.00;101180.09;5240440;28;20043;-68
2021/12/06 04:08:12;;;;;;;91.20;42.47;;;;;;;2.16;100.00;101185.28;5242727;28;20064;-68
2021/12/06 04:10:44;;;;;;;90.88;41.00;;;;;;;2.21;100.00;101179.88;5242149;28;20418;-68
2021/12/06 04:13:15;;;;;;;89.93;42.40;;;;;;;2.15;100.00;101194.13;5242861;28;20071;-68
2021/12/06 04:15:46;;;;;;;95.22;41.45;;;;;;;2.11;100.00;101191.63;5240913;28;20024;-68
2021/12/06 04:18:18;;;;;;;83.63;40.33;;;;;;;2.18;100.00;101193.13;5246504;28;20036;-68
2021/12/06 04:20:49;;;;;;;80.80;39.03;;;;;;;2.15;100.00;101188.84;5240830;28;20510;-67
2021/12/06 04:23:21;;;;;;;76.75;38.92;;;;;;;2.22;100.00;101186.84;5243989;28;20162;-68
2021/12/06 04:25:52;;;;;;;90.70;41.80;;;;;;;2.12;100.00;101181.06;5242067;28;21632;-68
2021/12/06 04:28:24;;;;;;;91.97;41.30;;;;;;;2.11;100.00;101182.00;5241710;28;20419;-68
2021/12/06 04:30:56;;;;;;;83.35;38.80;;;;;;;2.07;100.00;101187.41;5243976;28;21527;-68
2021/12/06 04:33:28;;;;;;;82.72;40.88;;;;;;;1.98;100.00;101188.59;5244645;28;20022;-68
2021/12/06 04:35:59;;;;;;;82.30;38.30;;;;;;;1.97;100.00;101181.59;5239760;28;20021;-68
2021/12/06 04:38:31;;;;;;;76.18;38.08;;;;;;;1.94;100.00;101190.47;5246526;28;20550;-68
2021/12/06 04:41:03;;;;;;;71.88;35.83;;;;;;;1.99;100.00;101189.44;5242972;28;20068;-68
2021/12/06 04:43:34;;;;;;;87.80;39.83;;;;;;;1.74;100.00;101192.94;5243236;28;20025;-68
2021/12/06 04:46:06;;;;;;;83.70;38.35;;;;;;;1.66;100.00;101195.81;5243398;28;20028;-68
2021/12/06 04:48:37;;;;;;;67.93;34.63;;;;;;;1.74;100.00;101190.28;5244772;28;20078;-68
2021/12/06 04:51:08;;;;;;;66.28;34.75;;;;;;;1.71;100.00;101198.31;5239606;28;20032;-68
2021/12/06 04:53:41;;;;;;;77.10;37.53;;;;;;;1.52;100.00;101204.19;5243809;28;20077;-68
2021/12/06 04:56:27;;;;;;;74.85;36.28;;;;;;;1.50;100.00;101210.41;5250650;28;20025;-68
2021/12/06 04:59:16;;;;;;;68.05;35.47;;;;;;;1.43;100.00;101212.34;5244991;28;20033;-68
2021/12/06 05:01:51;;;;;;;73.70;36.53;;;;;;;1.31;100.00;101216.25;5243317;28;20040;-68
2021/12/06 05:04:32;;;;;;;63.83;33.47;;;;;;;1.38;100.00;101209.00;5239439;28;20047;-68
2021/12/06 05:07:12;;;;;;;81.18;36.85;;;;;;;1.21;100.00;101208.69;5242288;28;20029;-68
2021/12/06 05:09:44;;;;;;;67.55;34.08;;;;;;;1.16;100.00;101207.06;5243560;28;20038;-68
2021/12/06 05:12:19;;;;;;;65.53;33.88;;;;;;;1.12;100.00;101207.22;5241554;28;20029;-68
2021/12/06 05:14:51;;;;;;;76.10;36.25;;;;;;;1.04;100.00;101219.75;5243765;28;20029;-68
2021/12/06 05:17:23;;;;;;;75.57;35.60;;;;;;;0.95;100.00;101227.00;5241993;28;21597;-68
2021/12/06 05:19:55;;;;;;;59.58;32.58;;;;;;;0.96;100.00;101222.63;5243174;28;20501;-68
2021/12/06 05:22:27;;;;;;;69.60;35.25;;;;;;;0.83;100.00;101232.63;5245445;28;20025;-68
2021/12/06 05:24:59;;;;;;;66.72;32.97;;;;;;;0.85;100.00;101228.19;5239159;28;20372;-68
2021/12/06 05:27:31;;;;;;;57.47;31.73;;;;;;;0.86;100.00;101231.66;5240592;28;20497;-68
2021/12/06 05:30:06;;;;;;;61.35;32.72;;;;;;;0.82;100.00;101233.53;5241920;28;20491;-68
2021/12/06 05:32:38;;;;;;;73.97;35.53;;;;;;;0.61;100.00;101227.13;5241283;28;20695;-68
2021/12/06 05:35:10;;;;;;;66.78;33.63;;;;;;;0.65;100.00;101233.16;5242885;28;20112;-68
2021/12/06 05:37:50;;;;;;;80.82;36.50;;;;;;;0.68;100.00;101219.94;5243695;28;20731;-68
2021/12/06 05:40:26;;;;;;;163.73;45.00;;;;;;;0.66;100.00;101224.38;5242767;28;20083;-68
2021/12/06 05:43:00;;;;;;;114.55;39.47;;;;;;;0.73;100.00;101231.16;5242681;28;20025;-68
2021/12/06 05:45:32;;;;;;;131.68;42.50;;;;;;;0.74;100.00;101222.41;5242012;28;20030;-68
2021/12/06 05:48:05;;;;;;;119.15;39.45;;;;;;;0.89;100.00;101231.59;5241074;28;20037;-68
2021/12/06 05:50:36;;;;;;;210.68;46.70;;;;;;;0.97;100.00;101230.44;5238450;28;20395;-68
2021/12/06 05:53:07;;;;;;;131.13;39.25;;;;;;;1.05;100.00;101231.97;5243821;28;20043;-68
2021/12/06 05:55:39;;;;;;;106.30;36.95;;;;;;;1.12;100.00;101230.88;5243427;28;20027;-69
2021/12/06 05:58:12;;;;;;;195.10;43.58;;;;;;;1.06;100.00;101233.72;5242728;28;20973;-68
2021/12/06 06:00:44;;;;;;;179.90;41.50;;;;;;;1.15;100.00;101236.03;5239248;28;20039;-68
2021/12/06 06:03:15;;;;;;;248.68;48.58;;;;;;;1.16;100.00;101243.03;5239387;28;20033;-68
2021/12/06 06:05:47;;;;;;;214.63;43.05;;;;;;;1.18;100.00;101243.81;5239622;28;20120;-68
2021/12/06 06:08:19;;;;;;;195.07;41.10;;;;;;;1.26;100.00;101249.69;5244076;28;20806;-68
2021/12/06 06:10:51;;;;;;;293.85;48.03;;;;;;;1.24;100.00;101243.63;5243065;28;20033;-68
2021/12/06 06:13:22;;;;;;;442.30;62.28;;;;;;;1.18;100.00;101259.59;5244216;28;20394;-68
2021/12/06 06:15:55;;;;;;;199.73;43.33;;;;;;;1.26;100.00;101265.47;5242603;28;20021;-67
2021/12/06 06:18:26;;;;;;;206.13;42.38;;;;;;;1.27;100.00;101263.72;5240975;28;20112;-68
2021/12/06 06:20:58;;;;;;;379.00;58.40;;;;;;;1.24;100.00;101267.28;5240002;28;20451;-68
2021/12/06 06:23:29;;;;;;;166.82;42.90;;;;;;;1.29;100.00;101272.41;5239735;28;20400;-68
2021/12/06 06:26:00;;;;;;;149.80;42.25;;;;;;;1.33;100.00;101272.25;5241431;28;20152;-68
2021/12/06 06:28:32;;;;;;;184.23;44.00;;;;;;;1.32;100.00;101277.56;5239705;28;20068;-68
2021/12/06 06:31:04;;;;;;;149.48;39.50;;;;;;;1.37;100.00;101273.88;5238052;28;20040;-68
2021/12/06 06:33:35;;;;;;;165.90;41.28;;;;;;;1.39;100.00;101271.22;5241255;28;20021;-68
2021/12/06 06:36:06;;;;;;;203.80;46.10;;;;;;;1.42;100.00;101267.63;5239188;28;20666;-68
2021/12/06 06:38:37;;;;;;;334.77;53.70;;;;;;;1.40;100.00;101272.94;5244532;28;20043;-68
2021/12/06 06:41:09;;;;;;;147.02;41.35;;;;;;;1.50;100.00;101269.09;5249663;28;20494;-68
2021/12/06 06:43:40;;;;;;;156.57;40.67;;;;;;;1.54;100.00;101267.25;5245644;28;20035;-68
2021/12/06 06:46:12;;;;;;;296.25;53.47;;;;;;;1.47;100.00;101266.56;5251290;28;20416;-68
2021/12/06 06:48:43;;;;;;;237.07;44.63;;;;;;;1.47;100.00;101277.09;5248195;28;20028;-68
2021/12/06 06:51:15;;;;;;;147.30;44.33;;;;;;;1.51;100.00;101275.22;5241030;28;20040;-68
2021/12/06 06:53:46;;;;;;;517.78;77.60;;;;;;;1.44;100.00;101277.19;5244558;28;20390;-67
2021/12/06 06:56:17;;;;;;;153.25;43.60;;;;;;;1.53;100.00;101270.75;5244132;28;20506;-68
2021/12/06 06:58:50;;;;;;;259.17;56.80;;;;;;;1.46;100.00;101275.38;5249274;28;20029;-68
2021/12/06 07:01:22;;;;;;;155.20;45.15;;;;;;;1.56;100.00;101273.31;5242886;28;20059;-68
2021/12/06 07:03:54;;;;;;;367.10;64.28;;;;;;;1.56;100.00;101275.94;5244804;28;20123;-68
2021/12/06 07:06:28;;;;;;;277.98;54.72;;;;;;;1.59;100.00;101269.72;5243229;28;20565;-68
2021/12/06 07:08:59;;;;;;;428.60;66.63;;;;;;;1.52;100.00;101274.31;5242829;28;20628;-68
2021/12/06 07:11:30;;;;;;;232.93;51.55;;;;;;;1.53;100.00;101270.75;5244399;28;20421;-68
2021/12/06 07:14:03;;;;;;;191.27;50.20;;;;;;;1.64;100.00;101275.69;5240595;28;20626;-68
2021/12/06 07:16:35;;;;;;;162.80;46.40;;;;;;;1.63;100.00;101287.09;5244428;28;20052;-68
2021/12/06 07:19:07;;;;;;;153.38;47.30;;;;;;;1.64;100.00;101281.81;5246351;28;20036;-68
2021/12/06 07:21:38;;;;;;;114.68;42.88;;;;;;;1.71;100.00;101285.97;5251465;28;20067;-68
2021/12/06 07:24:10;;;;;;;141.18;50.13;;;;;;;1.68;100.00;101298.34;5249147;28;20494;-68
2021/12/06 07:26:41;;;;;;;116.55;48.53;;;;;;;1.70;100.00;101294.75;5247226;28;20384;-68
2021/12/06 07:29:13;;;;;;;108.28;45.80;;;;;;;1.74;100.00;101299.00;5249898;28;20033;-68
2021/12/06 07:31:44;;;;;;;93.07;44.28;;;;;;;1.76;100.00;101299.84;5248750;28;20029;-68
2021/12/06 07:34:15;;;;;;;101.53;46.28;;;;;;;1.81;100.00;101301.44;5239265;28;20124;-68
2021/12/06 07:36:46;;;;;;;103.28;45.67;;;;;;;1.84;100.00;101310.13;5252482;28;20028;-68
2021/12/06 07:39:18;;;;;;;99.57;43.25;;;;;;;1.87;100.00;101306.50;5240961;28;20026;-67
2021/12/06 07:41:50;;;;;;;132.75;48.50;;;;;;;1.86;100.00;101307.41;5249966;28;20033;-68
2021/12/06 07:44:22;;;;;;;109.55;45.25;;;;;;;1.91;100.00;101308.13;5248518;28;20039;-67
2021/12/06 07:46:54;;;;;;;107.43;44.10;;;;;;;1.93;100.00;101306.31;5246087;28;20032;-68
2021/12/06 07:49:25;;;;;;;124.53;49.80;;;;;;;1.91;100.00;101298.44;5242740;28;20123;-68
2021/12/06 07:51:56;;;;;;;111.97;47.00;;;;;;;1.94;100.00;101292.25;5253808;28;20461;-68
2021/12/06 07:54:28;;;;;;;112.30;48.10;;;;;;;1.97;100.00;101292.13;5253063;28;20124;-68
2021/12/06 07:57:00;;;;;;;110.07;47.80;;;;;;;2.03;100.00;101291.06;5255443;28;20029;-68
2021/12/06 07:59:33;;;;;;;114.40;48.17;;;;;;;1.99;100.00;101285.03;5250385;28;20037;-68
2021/12/06 08:02:07;;;;;;;129.95;50.45;;;;;;;2.04;100.00;101283.13;5253638;28;20423;-68
2021/12/06 08:04:39;;;;;;;138.25;52.95;;;;;;;2.03;100.00;101276.13;5254721;28;20021;-68
2021/12/06 08:07:10;;;;;;;190.07;60.75;;;;;;;2.03;100.00;101275.28;5253522;28;20024;-68
2021/12/06 08:09:41;;;;;;;160.60;55.58;;;;;;;2.07;100.00;101275.13;5250892;28;20041;-68
2021/12/06 08:12:13;;;;;;;158.50;57.65;;;;;;;2.09;100.00;101275.06;5250477;28;20051;-68
2021/12/06 08:14:44;;;;;;;142.43;52.03;;;;;;;2.10;100.00;101276.78;5251507;28;20157;-68
2021/12/06 08:17:15;;;;;;;220.65;64.35;;;;;;;2.03;100.00;101280.53;5254065;28;20025;-68
2021/12/06 08:19:47;;;;;;;138.10;53.58;;;;;;;2.11;100.00;101276.75;5251770;28;20032;-69
2021/12/06 08:22:18;;;;;;;135.38;53.00;;;;;;;2.13;100.00;101276.69;5252127;28;20029;-68
2021/12/06 08:24:49;;;;;;;189.43;59.83;;;;;;;2.06;100.00;101277.81;5248879;28;20090;-68
2021/12/06 08:27:20;;;;;;;157.63;59.00;;;;;;;2.11;100.00;101282.00;5253214;28;20028;-69
2021/12/06 08:29:52;;;;;;;148.82;55.47;;;;;;;2.16;100.00;101281.84;5252887;28;20028;-68
2021/12/06 08:32:23;;;;;;;232.05;66.53;;;;;;;2.12;100.00;101283.72;5253825;28;20039;-68
2021/12/06 08:34:54;;;;;;;135.05;54.08;;;;;;;2.21;100.00;101293.06;5250018;28;20033;-68
2021/12/06 08:37:26;;;;;;;149.55;54.00;;;;;;;2.25;100.00;101293.84;5254354;28;20025;-68
2021/12/06 08:39:58;;;;;;;141.10;54.10;;;;;;;2.27;100.00;101300.75;5253002;28;20123;-68
2021/12/06 08:42:29;;;;;;;218.05;63.53;;;;;;;2.29;100.00;101305.97;5254002;28;20441;-68
2021/12/06 08:45:00;;;;;;;203.93;62.72;;;;;;;2.23;100.00;101309.69;5251995;28;20063;-68
2021/12/06 08:47:32;;;;;;;189.55;62.47;;;;;;;2.27;100.00;101315.69;5252249;28;20032;-68
2021/12/06 08:50:05;;;;;;;156.35;56.53;;;;;;;2.28;100.00;101322.66;5252116;28;20089;-68
2021/12/06 08:52:36;;;;;;;146.00;56.25;;;;;;;2.28;100.00;101310.38;5248706;28;20044;-67
2021/12/06 08:55:09;;;;;;;151.52;53.33;;;;;;;2.31;100.00;101325.22;5251743;28;20033;-68
2021/12/06 08:57:41;;;;;;;182.35;56.40;;;;;;;2.28;100.00;101325.31;5255346;28;20035;-68
2021/12/06 09:00:17;;;;;;;163.93;57.20;;;;;;;2.36;100.00;101323.28;5253097;28;20379;-68
2021/12/06 09:02:48;;;;;;;165.32;54.92;;;;;;;2.34;100.00;101327.75;5252369;28;20804;-68
2021/12/06 09:05:21;;;;;;;164.60;55.78;;;;;;;2.40;100.00;101324.00;5253030;28;20048;-67
2021/12/06 09:07:53;;;;;;;146.15;52.90;;;;;;;2.43;100.00;101332.69;5251795;28;20035;-67
2021/12/06 09:10:24;;;;;;;169.20;55.83;;;;;;;2.45;100.00;101330.84;5247666;28;20056;-68
2021/12/06 09:12:56;;;;;;;215.40;60.72;;;;;;;2.46;100.00;101334.38;5252812;28;20028;-68
2021/12/06 09:15:27;;;;;;;166.40;55.60;;;;;;;2.46;100.00;101335.22;5252216;28;20083;-68
2021/12/06 09:18:01;;;;;;;167.80;55.67;;;;;;;2.43;100.00;101335.31;5248822;28;20032;-68
2021/12/06 09:20:36;;;;;;;175.43;56.25;;;;;;;2.44;100.00;101338.81;5252950;28;20048;-68
2021/12/06 09:23:08;;;;;;;153.98;52.53;;;;;;;2.49;100.00;101335.13;5250152;28;20036;-67
2021/12/06 09:25:42;;;;;;;150.35;50.53;;;;;;;2.52;100.00;101331.50;5248233;28;20483;-68
2021/12/06 09:28:16;;;;;;;136.85;47.30;;;;;;;2.57;100.00;101336.59;5255022;28;20031;-68
2021/12/06 09:30:48;;;;;;;136.52;47.20;;;;;;;2.49;100.00;101336.88;5252097;28;20033;-68
2021/12/06 09:33:19;;;;;;;134.32;47.78;;;;;;;2.49;100.00;101336.88;5248494;28;20110;-68
2021/12/06 09:35:54;;;;;;;124.60;45.00;;;;;;;2.53;100.00;101336.72;5253010;28;20017;-68
2021/12/06 09:38:33;;;;;;;129.40;45.80;;;;;;;2.49;100.00;101339.50;5252431;28;20045;-68
2021/12/06 09:41:19;;;;;;;143.80;47.17;;;;;;;2.43;100.00;101337.09;5253979;28;20086;-68
2021/12/06 09:43:53;;;;;;;130.90;45.97;;;;;;;2.44;100.00;101331.78;5250063;28;20082;-68
2021/12/06 09:46:26;;;;;;;136.98;45.03;;;;;;;2.47;100.00;101339.53;5251376;28;20060;-68
2021/12/06 09:48:58;;;;;;;143.30;47.45;;;;;;;2.49;100.00;101335.13;5252290;28;20537;-68
2021/12/06 09:51:29;;;;;;;176.13;51.15;;;;;;;2.57;100.00;101328.69;5251609;28;20028;-68
2021/12/06 09:54:01;;;;;;;196.40;52.65;;;;;;;2.54;100.00;101338.44;5249929;28;20083;-68
2021/12/06 09:56:41;;;;;;;189.05;51.40;;;;;;;2.58;100.00;101343.59;5248595;28;20028;-68
2021/12/06 09:59:18;;;;;;;205.82;51.35;;;;;;;2.64;100.00;101343.38;5252796;28;20122;-68
2021/12/06 10:01:56;;;;;;;220.98;55.90;;;;;;;2.65;100.00;101345.13;5249234;28;20119;-68
2021/12/06 10:04:29;;;;;;;234.45;55.40;;;;;;;2.59;100.00;101338.28;5241737;28;20596;-68
2021/12/06 10:07:01;;;;;;;233.18;54.38;;;;;;;2.67;100.00;101328.31;5241199;28;20563;-68
2021/12/06 10:09:33;;;;;;;258.33;56.95;;;;;;;2.63;100.00;101321.44;5252576;28;20049;-68
2021/12/06 10:12:06;;;;;;;219.07;52.63;;;;;;;2.60;100.00;101321.56;5251206;28;20562;-68
2021/12/06 10:14:37;;;;;;;221.00;53.92;;;;;;;2.60;100.00;101316.28;5245974;28;20064;-68
2021/12/06 10:17:09;;;;;;;198.77;51.88;;;;;;;2.66;100.00;101308.16;5249366;28;20029;-67
2021/12/06 10:19:43;;;;;;;216.90;52.67;;;;;;;2.65;100.00;101302.97;5247546;28;20021;-68
2021/12/06 10:22:15;;;;;;;189.45;47.55;;;;;;;2.65;100.00;101300.31;5247723;28;20094;-67
2021/12/06 10:24:56;;;;;;;177.82;45.67;;;;;;;2.65;100.00;101300.31;5250652;28;20437;-68
2021/12/06 10:27:28;;;;;;;165.95;42.53;;;;;;;2.72;100.00;101288.63;5248877;28;20175;-68
2021/12/06 10:30:07;;;;;;;141.23;40.28;;;;;;;2.69;100.00;101288.75;5246849;28;20033;-68
2021/12/06 10:32:40;;;;;;;141.68;41.90;;;;;;;2.72;100.00;101292.16;5252619;28;20141;-68
2021/12/06 10:35:14;;;;;;;153.38;42.42;;;;;;;2.68;100.00;101292.28;5239799;28;20036;-68
2021/12/06 10:37:54;;;;;;;126.70;37.80;;;;;;;2.75;100.00;101296.44;5247224;28;20044;-68
2021/12/06 10:40:30;;;;;;;120.47;37.60;;;;;;;2.78;100.00;101300.72;5248992;28;20036;-68
2021/12/06 10:43:05;;;;;;;112.07;36.20;;;;;;;2.78;100.00;101296.34;5244424;28;20499;-68
2021/12/06 10:45:42;;;;;;;115.70;38.13;;;;;;;2.65;100.00;101293.28;5251009;28;20033;-68
2021/12/06 10:48:28;;;;;;;101.82;36.88;;;;;;;2.74;100.00;101277.13;5249058;28;20033;-69
2021/12/06 10:51:05;;;;;;;107.60;37.25;;;;;;;2.73;100.00;101274.56;5248320;28;20036;-69
2021/12/06 10:53:44;;;;;;;88.25;34.45;;;;;;;2.66;100.00;101268.63;5248764;28;20498;-68
2021/12/06 10:56:24;;;;;;;83.28;33.15;;;;;;;2.71;100.00;101260.56;5245050;28;20032;-68
2021/12/06 10:58:56;;;;;;;86.20;32.97;;;;;;;2.75;100.00;101249.84;5253836;28;20044;-68
2021/12/06 11:01:33;;;;;;;88.70;32.97;;;;;;;2.82;100.00;101237.31;5252116;28;20085;-67
2021/12/06 11:04:08;;;;;;;91.75;32.65;;;;;;;2.86;100.00;101231.03;5252901;28;20037;-67
2021/12/06 11:06:46;;;;;;;;;;;;;;;2.99;100.00;101227.91;5253981;28;20063;-68
2021/12/06 11:09:22;;;;;;;88.82;31.08;;;;;;;2.88;100.00;101237.09;5251854;28;19924;-68
2021/12/06 11:11:57;;;;;;;83.68;31.35;;;;;;;2.92;100.00;101237.84;5254311;28;20051;-68
2021/12/06 11:14:38;;;;;;;65.95;26.98;;;;;;;2.82;100.00;101241.72;5246469;28;20058;-68
2021/12/06 11:17:18;;;;;;;62.42;24.33;;;;;;;2.81;100.00;101234.75;5249899;28;20040;-68
2021/12/06 11:19:51;;;;;;;67.60;25.13;;;;;;;2.79;100.00;101221.63;5254992;28;20040;-68
2021/12/06 11:22:24;;;;;;;64.10;25.75;;;;;;;2.75;100.00;101218.25;5252930;28;20048;-67
2021/12/06 11:24:55;;;;;;;63.20;25.15;;;;;;;2.71;100.00;101199.97;5253925;28;20391;-68
2021/12/06 11:27:38;;;;;;;54.45;23.40;;;;;;;2.67;100.00;101204.50;5254172;28;20045;-68
2021/12/06 11:30:13;;;;;;;50.72;21.58;;;;;;;2.69;100.00;101197.41;5254081;28;20038;-68
2021/12/06 11:32:48;;;;;;;48.20;21.45;;;;;;;2.64;100.00;101201.13;5248293;28;20048;-68
2021/12/06 11:35:23;;;;;;;;;;;;;;;2.72;100.00;101201.69;5250528;28;20973;-67
2021/12/06 11:38:00;;;;;;;43.05;20.38;;;;;;;2.48;100.00;101199.06;5251282;28;19921;-68
2021/12/06 11:40:34;;;;;;;43.63;21.23;;;;;;;2.44;100.00;101192.19;5253599;28;20040;-68
2021/12/06 11:43:09;;;;;;;47.70;21.90;;;;;;;2.48;100.00;101185.03;5252498;28;20033;-68
2021/12/06 11:45:57;;;;;;;46.53;20.95;;;;;;;2.59;100.00;101189.88;5252399;28;20033;-68
2021/12/06 11:48:31;;;;;;;43.30;20.77;;;;;;;2.55;100.00;101183.88;5253492;28;20038;-68